sensor_id;sensor_type;location;lat;lon;timestamp;pressure;altitude;pressure_sealevel;temperature;humidity
64200;BME280;50516;52.272;5.136;2022-08-18T16:41:20;101375.88;;;25.25;59.43
64200;BME280;50516;52.272;5.136;2022-08-18T16:43:45;101374.78;;;25.14;58.95
64200;BME280;50516;52.272;5.136;2022-08-18T16:46:22;101378.28;;;25.11;59.47
64200;BME280;50516;52.272;5.136;2022-08-18T16:48:49;101371.97;;;25.14;58.84
64200;BME280;50516;52.272;5.136;2022-08-18T16:51:19;101368.22;;;24.94;58.68
64200;BME280;50516;52.272;5.136;2022-08-18T16:53:46;101364.50;;;25.06;59.21
64200;BME280;50516;52.272;5.136;2022-08-18T16:56:17;101364.59;;;25.09;58.98
64200;BME280;50516;52.272;5.136;2022-08-18T16:58:43;101366.59;;;25.09;58.99
64200;BME280;50516;52.272;5.136;2022-08-18T17:01:27;101362.91;;;25.05;58.29
64200;BME280;50516;52.272;5.136;2022-08-18T17:04:13;101358.84;;;24.90;58.62
64200;BME280;50516;52.272;5.136;2022-08-18T17:06:39;101361.97;;;25.01;58.99
64200;BME280;50516;52.272;5.136;2022-08-18T17:09:05;101361.03;;;24.96;58.33
64200;BME280;50516;52.272;5.136;2022-08-18T17:11:31;101360.94;;;24.93;57.84
64200;BME280;50516;52.272;5.136;2022-08-18T17:13:59;101357.34;;;24.92;58.44
64200;BME280;50516;52.272;5.136;2022-08-18T17:16:25;101357.88;;;24.98;58.18
64200;BME280;50516;52.272;5.136;2022-08-18T17:18:53;101350.66;;;24.97;57.73
64200;BME280;50516;52.272;5.136;2022-08-18T17:21:21;101358.59;;;24.95;58.56
64200;BME280;50516;52.272;5.136;2022-08-18T17:23:47;101352.06;;;24.91;58.22
64200;BME280;50516;52.272;5.136;2022-08-18T17:29:21;101359.03;;;24.81;58.08
64200;BME280;50516;52.272;5.136;2022-08-18T17:32:04;101358.59;;;24.67;57.82
64200;BME280;50516;52.272;5.136;2022-08-18T17:34:36;101356.72;;;24.71;57.84
64200;BME280;50516;52.272;5.136;2022-08-18T17:37:03;101357.81;;;24.66;58.21
64200;BME280;50516;52.272;5.136;2022-08-18T17:39:34;101350.63;;;24.69;58.46
64200;BME280;50516;52.272;5.136;2022-08-18T17:42:00;101352.53;;;24.65;58.36
64200;BME280;50516;52.272;5.136;2022-08-18T17:44:45;101350.91;;;24.64;58.38
64200;BME280;50516;52.272;5.136;2022-08-18T17:47:16;101346.09;;;24.64;57.75
64200;BME280;50516;52.272;5.136;2022-08-18T17:49:44;101356.88;;;24.62;58.34
64200;BME280;50516;52.272;5.136;2022-08-18T17:52:34;101352.78;;;24.59;58.82
64200;BME280;50516;52.272;5.136;2022-08-18T17:55:07;101355.13;;;24.57;58.45
64200;BME280;50516;52.272;5.136;2022-08-18T17:57:36;101357.34;;;24.52;58.83
64200;BME280;50516;52.272;5.136;2022-08-18T18:00:11;101358.84;;;24.49;58.74
64200;BME280;50516;52.272;5.136;2022-08-18T18:02:40;101365.53;;;24.45;58.32
64200;BME280;50516;52.272;5.136;2022-08-18T18:05:09;101371.97;;;24.45;59.58
64200;BME280;50516;52.272;5.136;2022-08-18T18:07:52;101364.53;;;24.37;58.99
64200;BME280;50516;52.272;5.136;2022-08-18T18:15:43;101367.78;;;24.27;59.80
64200;BME280;50516;52.272;5.136;2022-08-18T18:21:25;101368.53;;;24.11;61.58
64200;BME280;50516;52.272;5.136;2022-08-18T18:26:39;101361.41;;;24.01;62.14
64200;BME280;50516;52.272;5.136;2022-08-18T18:29:28;101356.88;;;23.97;62.41
64200;BME280;50516;52.272;5.136;2022-08-18T18:31:58;101360.91;;;23.75;62.32
64200;BME280;50516;52.272;5.136;2022-08-18T18:34:43;101356.34;;;23.70;62.74
64200;BME280;50516;52.272;5.136;2022-08-18T18:37:24;101363.50;;;23.67;62.35
64200;BME280;50516;52.272;5.136;2022-08-18T18:40:01;101357.97;;;23.59;62.31
64200;BME280;50516;52.272;5.136;2022-08-18T18:42:30;101361.25;;;23.48;62.47
64200;BME280;50516;52.272;5.136;2022-08-18T18:45:02;101357.25;;;23.49;63.20
64200;BME280;50516;52.272;5.136;2022-08-18T18:50:25;101361.22;;;23.36;63.74
64200;BME280;50516;52.272;5.136;2022-08-18T18:55:47;101357.09;;;23.21;63.85
64200;BME280;50516;52.272;5.136;2022-08-18T18:58:26;101359.28;;;23.15;64.62
64200;BME280;50516;52.272;5.136;2022-08-18T19:00:58;101357.69;;;23.14;64.52
64200;BME280;50516;52.272;5.136;2022-08-18T19:03:43;101359.97;;;23.12;65.41
64200;BME280;50516;52.272;5.136;2022-08-18T19:06:45;101365.81;;;23.07;65.06
64200;BME280;50516;52.272;5.136;2022-08-18T19:10:06;101361.94;;;23.00;65.03
64200;BME280;50516;52.272;5.136;2022-08-18T19:12:17;101364.78;;;22.91;65.17
64200;BME280;50516;52.272;5.136;2022-08-18T19:15:01;101356.63;;;22.86;65.12
64200;BME280;50516;52.272;5.136;2022-08-18T19:17:55;101360.22;;;22.86;65.52
64200;BME280;50516;52.272;5.136;2022-08-18T19:20:33;101368.97;;;22.85;65.79
64200;BME280;50516;52.272;5.136;2022-08-18T19:23:11;101369.19;;;22.79;65.69
64200;BME280;50516;52.272;5.136;2022-08-18T19:25:57;101355.88;;;22.76;66.06
64200;BME280;50516;52.272;5.136;2022-08-18T19:28:35;101362.38;;;22.68;66.82
64200;BME280;50516;52.272;5.136;2022-08-18T19:33:55;101353.22;;;22.59;67.15
64200;BME280;50516;52.272;5.136;2022-08-18T19:36:37;101351.31;;;22.51;67.76
64200;BME280;50516;52.272;5.136;2022-08-18T19:39:17;101345.91;;;22.46;67.83
64200;BME280;50516;52.272;5.136;2022-08-18T19:41:48;101351.53;;;22.46;67.75
64200;BME280;50516;52.272;5.136;2022-08-18T19:44:36;101356.31;;;22.45;67.88
64200;BME280;50516;52.272;5.136;2022-08-18T19:50:30;101353.47;;;22.24;69.08
64200;BME280;50516;52.272;5.136;2022-08-18T20:06:53;101346.75;;;21.95;70.64
64200;BME280;50516;52.272;5.136;2022-08-18T20:14:36;101353.53;;;21.85;71.06
64200;BME280;50516;52.272;5.136;2022-08-18T20:27:39;101349.16;;;21.76;71.72
64200;BME280;50516;52.272;5.136;2022-08-18T20:33:13;101354.28;;;21.65;72.12
64200;BME280;50516;52.272;5.136;2022-08-18T20:40:49;101360.09;;;21.51;72.45
64200;BME280;50516;52.272;5.136;2022-08-18T20:43:34;101358.47;;;21.50;73.05
64200;BME280;50516;52.272;5.136;2022-08-18T20:46:32;101357.44;;;21.46;73.01
64200;BME280;50516;52.272;5.136;2022-08-18T20:49:22;101351.38;;;21.44;72.88
64200;BME280;50516;52.272;5.136;2022-08-18T20:52:19;101355.84;;;21.36;73.06
64200;BME280;50516;52.272;5.136;2022-08-18T20:54:57;101348.28;;;21.37;73.15
64200;BME280;50516;52.272;5.136;2022-08-18T20:57:26;101352.22;;;21.36;73.05
64200;BME280;50516;52.272;5.136;2022-08-18T21:00:11;101358.63;;;21.36;72.93
64200;BME280;50516;52.272;5.136;2022-08-18T21:02:40;101370.63;;;21.37;73.11
64200;BME280;50516;52.272;5.136;2022-08-18T21:05:10;101363.09;;;21.28;73.62
64200;BME280;50516;52.272;5.136;2022-08-18T21:07:50;101365.38;;;21.26;73.26
64200;BME280;50516;52.272;5.136;2022-08-18T21:10:23;101358.50;;;21.24;73.58
64200;BME280;50516;52.272;5.136;2022-08-18T21:12:57;101362.13;;;21.24;73.77
64200;BME280;50516;52.272;5.136;2022-08-18T21:15:32;101366.56;;;21.16;74.41
64200;BME280;50516;52.272;5.136;2022-08-18T21:18:16;101360.34;;;21.11;74.22
64200;BME280;50516;52.272;5.136;2022-08-18T21:20:45;101352.63;;;21.08;74.08
64200;BME280;50516;52.272;5.136;2022-08-18T21:23:12;101363.13;;;21.02;74.22
64200;BME280;50516;52.272;5.136;2022-08-18T21:26:13;101360.34;;;21.02;74.11
64200;BME280;50516;52.272;5.136;2022-08-18T21:28:40;101356.75;;;21.02;74.32
64200;BME280;50516;52.272;5.136;2022-08-18T21:33:49;101375.16;;;21.03;74.21
64200;BME280;50516;52.272;5.136;2022-08-18T21:36:17;101375.47;;;21.01;73.84
64200;BME280;50516;52.272;5.136;2022-08-18T21:38:50;101375.28;;;20.97;73.97
64200;BME280;50516;52.272;5.136;2022-08-18T21:41:22;101378.25;;;20.92;74.09
64200;BME280;50516;52.272;5.136;2022-08-18T21:43:54;101374.19;;;20.90;73.78
64200;BME280;50516;52.272;5.136;2022-08-18T21:46:24;101385.66;;;20.88;73.79
64200;BME280;50516;52.272;5.136;2022-08-18T21:48:53;101373.50;;;20.84;74.01
64200;BME280;50516;52.272;5.136;2022-08-18T21:51:26;101383.03;;;20.83;74.05
64200;BME280;50516;52.272;5.136;2022-08-18T21:53:53;101379.75;;;20.81;74.38
64200;BME280;50516;52.272;5.136;2022-08-18T21:56:28;101388.13;;;20.72;74.68
64200;BME280;50516;52.272;5.136;2022-08-18T21:59:08;101383.22;;;20.69;74.70
64200;BME280;50516;52.272;5.136;2022-08-18T22:01:36;101389.94;;;20.68;74.75
64200;BME280;50516;52.272;5.136;2022-08-18T22:07:10;101379.75;;;20.64;75.11
64200;BME280;50516;52.272;5.136;2022-08-18T22:10:00;101391.19;;;20.62;74.97
64200;BME280;50516;52.272;5.136;2022-08-18T22:12:56;101385.63;;;20.53;74.70
64200;BME280;50516;52.272;5.136;2022-08-18T22:15:46;101383.66;;;20.54;74.57
64200;BME280;50516;52.272;5.136;2022-08-18T22:20:51;101379.56;;;20.51;74.72
64200;BME280;50516;52.272;5.136;2022-08-18T22:23:42;101377.91;;;20.50;74.61
64200;BME280;50516;52.272;5.136;2022-08-18T22:26:35;101380.88;;;20.45;74.97
64200;BME280;50516;52.272;5.136;2022-08-18T22:31:48;101378.41;;;20.35;75.32
64200;BME280;50516;52.272;5.136;2022-08-18T22:34:18;101379.38;;;20.30;75.32
64200;BME280;50516;52.272;5.136;2022-08-18T22:36:50;101376.06;;;20.28;75.15
64200;BME280;50516;52.272;5.136;2022-08-18T22:39:26;101375.75;;;20.30;75.01
64200;BME280;50516;52.272;5.136;2022-08-18T22:41:52;101368.03;;;20.27;74.84
64200;BME280;50516;52.272;5.136;2022-08-18T22:44:17;101363.13;;;20.23;75.08
64200;BME280;50516;52.272;5.136;2022-08-18T22:46:43;101355.09;;;20.22;75.10
64200;BME280;50516;52.272;5.136;2022-08-18T22:49:08;101358.19;;;20.20;75.04
64200;BME280;50516;52.272;5.136;2022-08-18T22:51:35;101371.13;;;20.16;74.96
64200;BME280;50516;52.272;5.136;2022-08-18T22:54:02;101378.22;;;20.22;75.08
64200;BME280;50516;52.272;5.136;2022-08-18T22:56:30;101379.66;;;20.20;75.02
64200;BME280;50516;52.272;5.136;2022-08-18T22:58:56;101381.16;;;20.17;75.54
64200;BME280;50516;52.272;5.136;2022-08-18T23:01:22;101372.94;;;20.12;75.17
64200;BME280;50516;52.272;5.136;2022-08-18T23:03:48;101370.81;;;20.09;75.18
64200;BME280;50516;52.272;5.136;2022-08-18T23:06:13;101370.81;;;20.09;75.01
64200;BME280;50516;52.272;5.136;2022-08-18T23:08:39;101369.47;;;20.06;74.79
64200;BME280;50516;52.272;5.136;2022-08-18T23:11:07;101373.59;;;20.09;74.73
64200;BME280;50516;52.272;5.136;2022-08-18T23:13:32;101364.06;;;20.10;74.60
64200;BME280;50516;52.272;5.136;2022-08-18T23:15:58;101380.47;;;20.03;75.15
64200;BME280;50516;52.272;5.136;2022-08-18T23:18:24;101385.19;;;19.94;75.41
64200;BME280;50516;52.272;5.136;2022-08-18T23:20:54;101388.78;;;19.94;75.70
64200;BME280;50516;52.272;5.136;2022-08-18T23:23:25;101380.63;;;19.98;75.66
64200;BME280;50516;52.272;5.136;2022-08-18T23:25:54;101380.09;;;19.96;75.88
64200;BME280;50516;52.272;5.136;2022-08-18T23:28:21;101380.75;;;19.93;76.24
64200;BME280;50516;52.272;5.136;2022-08-18T23:30:48;101379.25;;;19.86;75.99
64200;BME280;50516;52.272;5.136;2022-08-18T23:33:14;101382.06;;;19.86;75.65
64200;BME280;50516;52.272;5.136;2022-08-18T23:35:40;101386.47;;;19.87;75.76
64200;BME280;50516;52.272;5.136;2022-08-18T23:38:06;101390.91;;;19.88;75.83
64200;BME280;50516;52.272;5.136;2022-08-18T23:40:33;101398.44;;;19.88;75.92
64200;BME280;50516;52.272;5.136;2022-08-18T23:42:59;101393.84;;;19.83;76.34
64200;BME280;50516;52.272;5.136;2022-08-18T23:45:25;101396.47;;;19.80;75.91
64200;BME280;50516;52.272;5.136;2022-08-18T23:47:50;101391.53;;;19.77;75.75
64200;BME280;50516;52.272;5.136;2022-08-18T23:50:17;101389.56;;;19.77;75.84
64200;BME280;50516;52.272;5.136;2022-08-18T23:52:42;101389.16;;;19.70;75.90
64200;BME280;50516;52.272;5.136;2022-08-18T23:55:12;101381.47;;;19.67;76.03
64200;BME280;50516;52.272;5.136;2022-08-18T23:57:37;101382.28;;;19.67;75.87
